createdAt,value
2018-02-09T00:00:38.181Z,33.17
2018-02-09T00:03:05.971Z,33.30
2018-02-09T00:05:33.666Z,31.20
2018-02-09T00:08:01.307Z,28.23
2018-02-09T00:10:29.075Z,30.50
2018-02-09T00:12:56.638Z,28.63
2018-02-09T00:15:24.193Z,26.63
2018-02-09T00:17:51.758Z,29.53
2018-02-09T00:20:19.584Z,29.40
2018-02-09T00:22:53.425Z,29.63
2018-02-09T00:25:20.989Z,28.40
2018-02-09T00:27:48.552Z,27.73
2018-02-09T00:30:16.282Z,28.07
2018-02-09T00:32:43.970Z,29.30
2018-02-09T00:35:11.684Z,23.63
2018-02-09T00:37:39.240Z,23.20
2018-02-09T00:40:06.814Z,24.47
2018-02-09T00:42:34.566Z,27.03
2018-02-09T00:45:02.129Z,25.93
2018-02-09T00:47:29.814Z,31.30
2018-02-09T00:49:57.621Z,29.37
2018-02-09T00:52:25.188Z,28.80
2018-02-09T00:54:52.749Z,29.53
2018-02-09T00:57:20.458Z,28.20
2018-02-09T00:59:48.021Z,26.43
2018-02-09T01:02:15.811Z,23.87
2018-02-09T01:04:43.405Z,24.13
2018-02-09T01:07:11.018Z,22.97
2018-02-09T01:09:38.562Z,21.63
2018-02-09T01:12:06.204Z,21.93
2018-02-09T01:14:33.766Z,20.60
2018-02-09T01:17:01.486Z,20.57
2018-02-09T01:19:29.113Z,19.57
2018-02-09T01:21:56.819Z,24.57
2018-02-09T01:24:24.534Z,25.67
2018-02-09T01:26:52.429Z,24.03
2018-02-09T01:29:19.995Z,25.43
2018-02-09T01:31:47.727Z,24.63
2018-02-09T01:34:15.285Z,24.80
2018-02-09T01:36:42.909Z,26.33
2018-02-09T01:39:10.681Z,26.37
2018-02-09T01:41:38.261Z,25.90
2018-02-09T01:44:05.840Z,26.27
2018-02-09T01:46:33.395Z,23.27
2018-02-09T01:49:00.961Z,23.07
2018-02-09T01:51:28.534Z,20.60
2018-02-09T01:53:56.289Z,19.93
2018-02-09T01:56:24.006Z,19.07
2018-02-09T01:58:51.553Z,19.13
2018-02-09T02:01:19.161Z,17.67
2018-02-09T02:03:46.721Z,18.30
2018-02-09T02:06:14.478Z,17.20
2018-02-09T02:08:42.296Z,18.07
2018-02-09T02:11:09.866Z,17.90
2018-02-09T02:13:37.406Z,18.33
2018-02-09T02:16:05.029Z,21.10
2018-02-09T02:18:32.587Z,20.60
2018-02-09T02:21:00.128Z,20.93
2018-02-09T02:23:27.658Z,23.50
2018-02-09T02:25:55.524Z,27.90
2018-02-09T02:28:23.339Z,29.80
2018-02-09T02:30:51.025Z,27.80
2018-02-09T02:33:18.878Z,27.80
2018-02-09T02:35:46.424Z,28.20
2018-02-09T02:38:13.990Z,26.93
2018-02-09T02:40:41.615Z,25.60
2018-02-09T02:43:09.177Z,26.00
2018-02-09T02:45:36.775Z,26.07
2018-02-09T02:48:04.595Z,26.13
2018-02-09T02:50:32.189Z,24.73
2018-02-09T02:52:59.777Z,26.23
2018-02-09T02:55:27.537Z,27.10
2018-02-09T02:57:55.137Z,28.10
2018-02-09T03:00:22.873Z,27.63
2018-02-09T03:02:50.442Z,29.47
2018-02-09T03:05:18.210Z,28.93
2018-02-09T03:07:45.761Z,30.33
2018-02-09T03:10:13.321Z,29.37
2018-02-09T03:12:40.877Z,25.80
2018-02-09T03:15:08.682Z,23.97
2018-02-09T03:17:36.361Z,24.50
2018-02-09T03:20:03.941Z,22.20
2018-02-09T03:22:31.501Z,23.90
2018-02-09T03:24:59.057Z,22.20
2018-02-09T03:27:26.617Z,23.63
2018-02-09T03:29:54.183Z,24.87
2018-02-09T03:32:21.746Z,25.50
2018-02-09T03:34:50.200Z,26.67
2018-02-09T03:37:17.805Z,26.63
2018-02-09T03:39:45.349Z,26.80
2018-02-09T03:42:13.049Z,26.93
2018-02-09T03:44:40.600Z,26.10
2018-02-09T03:47:08.166Z,28.83
2018-02-09T03:49:35.726Z,32.40
2018-02-09T03:52:03.615Z,31.17
2018-02-09T03:54:31.355Z,28.50
2018-02-09T03:56:59.047Z,28.30
2018-02-09T03:59:26.620Z,28.47
2018-02-09T04:01:54.425Z,30.60
2018-02-09T04:04:22.001Z,28.73
2018-02-09T04:06:49.557Z,25.43
2018-02-09T04:09:17.112Z,27.07
2018-02-09T04:11:44.673Z,26.40
2018-02-09T04:14:12.385Z,25.70
2018-02-09T04:16:39.949Z,25.83
2018-02-09T04:19:07.563Z,26.80
2018-02-09T04:21:35.562Z,25.87
2018-02-09T04:24:03.387Z,31.07
2018-02-09T04:26:31.107Z,29.90
2018-02-09T04:28:58.924Z,29.53
2018-02-09T04:31:26.535Z,30.73
2018-02-09T04:33:54.109Z,33.73
2018-02-09T04:36:21.877Z,29.70
2018-02-09T04:38:49.429Z,30.00
2018-02-09T04:41:16.989Z,27.90
2018-02-09T04:43:44.538Z,25.97
2018-02-09T04:46:12.348Z,29.03
2018-02-09T04:48:40.039Z,28.87
2018-02-09T04:51:07.755Z,28.13
2018-02-09T04:53:35.322Z,30.37
2018-02-09T04:56:02.873Z,33.67
2018-02-09T04:58:30.520Z,35.63
2018-02-09T05:00:58.085Z,32.03
2018-02-09T05:03:25.640Z,32.17
2018-02-09T05:05:53.206Z,30.13
2018-02-09T05:08:20.770Z,29.93
2018-02-09T05:10:48.530Z,29.87
2018-02-09T05:13:16.115Z,30.13
2018-02-09T05:15:43.965Z,28.13
2018-02-09T05:18:11.534Z,26.33
2018-02-09T05:20:39.086Z,27.13
2018-02-09T05:23:07.235Z,26.23
2018-02-09T05:25:34.944Z,25.10
2018-02-09T05:28:02.499Z,19.37
2018-02-09T05:30:30.061Z,20.23
2018-02-09T05:32:57.790Z,19.40
2018-02-09T05:35:25.357Z,19.60
2018-02-09T05:37:52.913Z,17.37
2018-02-09T05:40:20.644Z,17.23
2018-02-09T05:42:48.213Z,25.23
2018-02-09T05:45:15.874Z,27.20
2018-02-09T05:47:43.630Z,27.10
2018-02-09T05:50:11.193Z,23.03
2018-02-09T05:52:38.750Z,24.63
2018-02-09T05:55:06.544Z,21.40
2018-02-09T05:57:34.102Z,25.60
2018-02-09T06:00:01.781Z,23.67
2018-02-09T06:02:29.477Z,21.93
2018-02-09T06:04:57.115Z,22.10
2018-02-09T06:07:24.658Z,22.87
2018-02-09T06:09:52.241Z,21.27
2018-02-09T06:12:19.943Z,17.17
2018-02-09T06:14:47.505Z,22.60
2018-02-09T06:17:15.126Z,21.03
2018-02-09T06:19:42.693Z,21.33
2018-02-09T06:22:10.252Z,18.03
2018-02-09T06:24:37.821Z,18.00
2018-02-09T06:27:05.592Z,16.80
2018-02-09T06:29:33.162Z,15.27
2018-02-09T06:32:00.720Z,16.27
2018-02-09T06:34:28.353Z,17.63
2018-02-09T06:36:56.158Z,16.80
2018-02-09T06:39:23.713Z,14.07
2018-02-09T06:41:51.382Z,15.40
2018-02-09T06:44:19.110Z,13.80
2018-02-09T06:46:46.704Z,15.47
2018-02-09T06:49:14.435Z,16.00
2018-02-09T06:51:42.264Z,16.03
2018-02-09T06:54:10.797Z,14.43
2018-02-09T06:56:38.395Z,11.77
2018-02-09T06:59:06.100Z,13.17
2018-02-09T07:01:33.658Z,14.70
2018-02-09T07:04:01.207Z,12.60
2018-02-09T07:06:28.753Z,12.10
2018-02-09T07:08:56.594Z,13.53
2018-02-09T07:11:24.163Z,13.43
2018-02-09T07:13:51.721Z,15.17
2018-02-09T07:16:19.346Z,14.20
2018-02-09T07:18:46.958Z,14.00
2018-02-09T07:21:14.599Z,12.67
2018-02-09T07:23:42.145Z,12.13
2018-02-09T07:26:09.766Z,12.30
2018-02-09T07:28:37.494Z,13.90
2018-02-09T07:31:05.236Z,12.67
2018-02-09T07:33:32.927Z,12.37
2018-02-09T07:36:00.489Z,15.23
2018-02-09T07:38:28.099Z,10.70
2018-02-09T07:40:55.717Z,14.73
2018-02-09T07:43:23.849Z,12.70
2018-02-09T07:45:51.418Z,14.43
2018-02-09T07:48:18.976Z,26.03
2018-02-09T07:50:46.532Z,12.83
2018-02-09T07:53:14.107Z,13.10
2018-02-09T07:55:41.670Z,14.10
2018-02-09T07:58:09.329Z,12.03
2018-02-09T08:00:37.071Z,11.70
2018-02-09T08:03:04.796Z,9.77
2018-02-09T08:05:32.353Z,11.80
2018-02-09T08:08:00.124Z,12.90
2018-02-09T08:10:27.688Z,12.10
2018-02-09T08:12:55.461Z,12.30
2018-02-09T08:15:24.366Z,13.77
2018-02-09T08:17:52.149Z,12.00
2018-02-09T08:20:19.782Z,12.43
2018-02-09T08:22:47.681Z,11.77
2018-02-09T08:25:15.397Z,12.30
2018-02-09T08:27:42.953Z,15.10
2018-02-09T08:30:10.522Z,15.20
2018-02-09T08:32:38.081Z,16.03
2018-02-09T08:35:05.880Z,13.90
2018-02-09T08:37:33.596Z,15.50
2018-02-09T08:40:01.168Z,10.83
2018-02-09T08:42:28.789Z,11.63
2018-02-09T08:44:56.341Z,14.03
2018-02-09T08:47:24.171Z,11.03
2018-02-09T08:49:51.856Z,9.10
2018-02-09T08:52:19.492Z,10.00
2018-02-09T08:54:47.222Z,11.10
2018-02-09T08:57:14.941Z,8.63
2018-02-09T08:59:42.512Z,7.03
2018-02-09T09:02:10.068Z,7.70
2018-02-09T09:04:37.648Z,6.33
2018-02-09T09:07:05.214Z,8.57
2018-02-09T09:09:32.838Z,10.87
2018-02-09T09:12:00.417Z,9.87
2018-02-09T09:14:27.978Z,8.73
2018-02-09T09:16:55.539Z,7.80
2018-02-09T09:19:23.278Z,10.47
2018-02-09T09:21:50.843Z,10.93
2018-02-09T09:24:18.409Z,13.27
2018-02-09T09:26:46.259Z,13.77
2018-02-09T09:29:13.871Z,16.83
2018-02-09T09:31:41.435Z,12.83
2018-02-09T09:34:09.089Z,13.47
2018-02-09T09:36:36.827Z,16.07
2018-02-09T09:39:04.496Z,10.90
2018-02-09T09:41:32.073Z,13.10
2018-02-09T09:43:59.697Z,13.87
2018-02-09T09:46:27.394Z,11.20
2018-02-09T09:48:54.981Z,14.17
2018-02-09T09:51:22.812Z,11.80
2018-02-09T09:53:50.528Z,10.97
2018-02-09T09:56:18.089Z,11.33
2018-02-09T09:58:45.890Z,10.23
2018-02-09T10:01:19.430Z,9.10
2018-02-09T10:03:46.985Z,6.13
2018-02-09T10:06:14.550Z,5.90
2018-02-09T10:08:42.127Z,5.23
2018-02-09T10:11:09.900Z,29.27
2018-02-09T10:13:37.491Z,6.53
2018-02-09T10:16:05.059Z,6.43
2018-02-09T10:18:32.853Z,5.10
2018-02-09T10:21:00.571Z,5.97
2018-02-09T10:23:28.240Z,4.77
2018-02-09T10:25:56.010Z,4.20
2018-02-09T10:28:23.561Z,4.23
2018-02-09T10:30:51.220Z,4.40
2018-02-09T10:33:18.786Z,3.60
2018-02-09T10:35:46.509Z,3.13
2018-02-09T10:38:14.298Z,3.63
2018-02-09T10:40:41.893Z,4.50
2018-02-09T10:43:09.513Z,3.90
2018-02-09T10:45:37.257Z,4.07
2018-02-09T10:48:04.862Z,3.33
2018-02-09T10:50:32.589Z,3.23
2018-02-09T10:53:00.407Z,4.67
2018-02-09T10:55:27.954Z,3.80
2018-02-09T10:57:55.743Z,4.40
2018-02-09T11:00:28.994Z,4.80
2018-02-09T11:02:56.698Z,4.97
2018-02-09T11:05:24.518Z,3.40
2018-02-09T11:07:52.131Z,4.30
2018-02-09T11:10:25.216Z,4.50
2018-02-09T11:12:52.871Z,4.80
2018-02-09T11:15:20.686Z,3.70
2018-02-09T11:17:48.252Z,5.73
2018-02-09T11:20:15.814Z,10.27
2018-02-09T11:22:43.563Z,5.23
2018-02-09T11:25:11.124Z,5.97
2018-02-09T11:27:38.689Z,5.47
2018-02-09T11:30:06.231Z,4.30
2018-02-09T11:32:34.009Z,5.97
2018-02-09T11:35:01.752Z,8.80
2018-02-09T11:37:29.316Z,6.67
2018-02-09T11:39:56.888Z,5.37
2018-02-09T11:42:24.445Z,4.17
2018-02-09T11:44:52.006Z,5.77
2018-02-09T11:47:19.554Z,4.47
2018-02-09T11:49:47.422Z,4.03
2018-02-09T11:52:14.978Z,4.10
2018-02-09T11:54:42.695Z,4.93
2018-02-09T11:57:10.262Z,9.40
2018-02-09T11:59:37.833Z,5.47
2018-02-09T12:02:05.402Z,16.47
2018-02-09T12:04:33.073Z,7.77
2018-02-09T12:07:00.940Z,11.33
2018-02-09T12:09:28.486Z,9.03
2018-02-09T12:11:56.038Z,6.70
2018-02-09T12:14:23.843Z,21.50
2018-02-09T12:16:51.474Z,19.87
2018-02-09T12:19:19.053Z,4.40
2018-02-09T12:21:46.637Z,4.93
2018-02-09T12:24:14.250Z,6.53
2018-02-09T12:26:41.919Z,9.87
2018-02-09T12:29:09.487Z,11.60
2018-02-09T12:31:37.053Z,8.13
2018-02-09T12:34:04.621Z,12.50
2018-02-09T12:36:32.291Z,12.67
2018-02-09T12:38:59.845Z,6.53
2018-02-09T12:41:27.601Z,9.63
2018-02-09T12:43:55.312Z,10.60
2018-02-09T12:46:22.964Z,15.90
2018-02-09T12:48:50.558Z,55.80
2018-02-09T12:51:18.118Z,16.37
2018-02-09T12:53:45.686Z,8.57
2018-02-09T12:56:13.256Z,20.03
2018-02-09T12:58:40.978Z,9.13
2018-02-09T13:01:08.537Z,9.50
2018-02-09T13:03:36.270Z,7.37
2018-02-09T13:06:04.115Z,16.97
2018-02-09T13:08:31.833Z,42.50
2018-02-09T13:10:59.542Z,6.20
2018-02-09T13:13:27.106Z,9.23
2018-02-09T13:15:54.725Z,22.23
2018-02-09T13:18:34.097Z,9.07
2018-02-09T13:21:01.755Z,6.87
2018-02-09T13:23:41.002Z,8.00
2018-02-09T13:26:08.596Z,7.60
2018-02-09T13:28:47.943Z,6.13
2018-02-09T13:31:15.717Z,27.03
2018-02-09T13:33:43.537Z,14.73
2018-02-09T13:36:11.474Z,16.93
2018-02-09T13:38:39.033Z,8.63
2018-02-09T13:41:06.793Z,34.30
2018-02-09T13:43:34.353Z,10.10
2018-02-09T13:46:02.101Z,58.20
2018-02-09T13:48:29.659Z,26.17
2018-02-09T13:50:57.466Z,7.23
2018-02-09T13:53:25.042Z,16.27
2018-02-09T13:55:52.691Z,19.43
2018-02-09T13:58:20.297Z,16.27
2018-02-09T14:00:48.000Z,45.80
2018-02-09T14:03:15.534Z,8.43
2018-02-09T14:05:43.279Z,9.57
2018-02-09T14:08:10.851Z,11.63
2018-02-09T14:10:38.418Z,9.47
2018-02-09T14:13:06.225Z,7.57
2018-02-09T14:15:33.945Z,9.80
2018-02-09T14:18:01.762Z,8.37
2018-02-09T14:20:29.481Z,5.67
2018-02-09T14:22:57.055Z,5.10
2018-02-09T14:25:24.817Z,7.07
2018-02-09T14:27:52.534Z,5.83
2018-02-09T14:30:20.102Z,15.57
2018-02-09T14:32:47.658Z,6.80
2018-02-09T14:35:15.275Z,5.93
2018-02-09T14:37:42.924Z,6.17
2018-02-09T14:40:10.619Z,7.47
2018-02-09T14:42:39.151Z,8.00
2018-02-09T14:45:07.055Z,9.90
2018-02-09T14:47:34.681Z,7.33
2018-02-09T14:50:02.333Z,5.53
2018-02-09T14:52:30.109Z,11.70
2018-02-09T14:54:57.822Z,14.20
2018-02-09T14:57:25.477Z,10.50
2018-02-09T14:59:53.184Z,8.50
2018-02-09T15:02:20.889Z,48.60
2018-02-09T15:04:48.575Z,10.70
2018-02-09T15:07:16.709Z,7.83
2018-02-09T15:09:44.342Z,7.00
2018-02-09T15:12:11.943Z,9.97
2018-02-09T15:14:39.682Z,15.80
2018-02-09T15:17:07.501Z,10.03
2018-02-09T15:19:35.139Z,10.27
2018-02-09T15:22:02.777Z,8.87
2018-02-09T15:24:30.334Z,8.57
2018-02-09T15:26:58.229Z,10.47
2018-02-09T15:29:25.978Z,10.27
2018-02-09T15:31:53.802Z,9.00
2018-02-09T15:34:21.633Z,12.00
2018-02-09T15:36:49.244Z,11.63
2018-02-09T15:39:16.856Z,13.10
2018-02-09T15:41:44.429Z,20.83
2018-02-09T15:44:12.131Z,16.30
2018-02-09T15:46:39.784Z,15.70
2018-02-09T15:49:07.557Z,13.57
2018-02-09T15:51:35.146Z,12.27
2018-02-09T15:54:03.068Z,13.30
2018-02-09T15:56:31.054Z,13.30
2018-02-09T15:58:58.795Z,15.00
2018-02-09T16:01:26.621Z,12.37
2018-02-09T16:03:54.163Z,13.70
2018-02-09T16:06:21.718Z,11.87
2018-02-09T16:08:49.485Z,14.33
2018-02-09T16:11:17.303Z,15.43
2018-02-09T16:13:45.120Z,15.63
2018-02-09T16:16:12.676Z,24.37
2018-02-09T16:18:40.348Z,18.17
2018-02-09T16:21:08.075Z,15.77
2018-02-09T16:23:35.793Z,14.43
2018-02-09T16:26:03.403Z,14.50
2018-02-09T16:28:31.042Z,18.17
2018-02-09T16:30:58.956Z,18.03
2018-02-09T16:33:26.967Z,26.33
2018-02-09T16:35:54.766Z,23.93
2018-02-09T16:38:22.704Z,25.33
2018-02-09T16:40:50.262Z,24.13
2018-02-09T16:43:17.869Z,28.60
2018-02-09T16:45:45.655Z,19.90
2018-02-09T16:48:13.406Z,43.33
2018-02-09T16:50:40.980Z,33.80
2018-02-09T16:53:08.814Z,45.03
2018-02-09T16:55:36.863Z,32.70
2018-02-09T16:58:04.753Z,29.47
2018-02-09T17:00:32.531Z,36.87
2018-02-09T17:03:00.154Z,36.73
2018-02-09T17:05:27.853Z,19.03
2018-02-09T17:07:55.446Z,18.90
2018-02-09T17:10:23.009Z,19.33
2018-02-09T17:12:50.582Z,28.37
2018-02-09T17:15:18.141Z,20.60
2018-02-09T17:17:45.706Z,19.53
2018-02-09T17:20:13.269Z,23.47
2018-02-09T17:22:40.829Z,20.40
2018-02-09T17:25:08.438Z,19.97
2018-02-09T17:27:36.005Z,21.43
2018-02-09T17:30:03.629Z,20.33
2018-02-09T17:32:31.185Z,33.00
2018-02-09T17:34:58.741Z,26.03
2018-02-09T17:37:26.328Z,28.13
2018-02-09T17:39:54.016Z,25.50
2018-02-09T17:42:21.758Z,25.40
2018-02-09T17:44:49.478Z,56.77
2018-02-09T17:47:17.310Z,46.23
2018-02-09T17:49:44.882Z,31.00
2018-02-09T17:52:12.646Z,39.50
2018-02-09T17:54:40.213Z,42.23
2018-02-09T17:57:07.870Z,57.70
2018-02-09T17:59:35.496Z,53.17
2018-02-09T18:02:03.320Z,44.33
2018-02-09T18:04:30.937Z,68.30
2018-02-09T18:06:58.656Z,50.30
2018-02-09T18:09:26.391Z,55.37
2018-02-09T18:11:53.957Z,66.93
2018-02-09T18:14:21.545Z,63.60
2018-02-09T18:16:49.161Z,59.30
2018-02-09T18:19:16.748Z,104.07
2018-02-09T18:21:45.208Z,94.10
2018-02-09T18:24:12.853Z,162.40
2018-02-09T18:26:40.421Z,121.57
2018-02-09T18:29:07.993Z,108.77
2018-02-09T18:31:35.736Z,108.53
2018-02-09T18:34:03.550Z,80.73
2018-02-09T18:36:31.394Z,89.50
2018-02-09T18:38:59.017Z,130.17
2018-02-09T18:41:26.812Z,89.23
2018-02-09T18:43:54.384Z,157.07
2018-02-09T18:46:22.146Z,115.00
2018-02-09T18:48:49.741Z,89.33
2018-02-09T18:51:17.320Z,116.40
2018-02-09T18:53:44.903Z,86.00
2018-02-09T18:56:12.719Z,109.33
2018-02-09T18:58:40.289Z,119.10
2018-02-09T19:01:07.872Z,97.77
2018-02-09T19:03:35.556Z,73.20
2018-02-09T19:06:03.488Z,69.10
2018-02-09T19:08:31.053Z,40.30
2018-02-09T19:10:58.610Z,35.40
2018-02-09T19:13:26.609Z,31.73
2018-02-09T19:15:54.326Z,59.57
2018-02-09T19:18:21.888Z,114.77
2018-02-09T19:20:49.703Z,139.03
2018-02-09T19:23:17.405Z,87.17
2018-02-09T19:25:45.029Z,71.10
2018-02-09T19:28:12.602Z,104.43
2018-02-09T19:30:40.242Z,107.47
2018-02-09T19:33:07.891Z,81.93
2018-02-09T19:35:35.707Z,79.73
2018-02-09T19:38:03.277Z,64.67
2018-02-09T19:40:31.045Z,54.73
2018-02-09T19:42:58.648Z,50.57
2018-02-09T19:45:26.379Z,69.93
2018-02-09T19:47:53.997Z,41.57
2018-02-09T19:50:21.555Z,43.23
2018-02-09T19:52:49.471Z,47.50
2018-02-09T19:55:17.246Z,48.83
2018-02-09T19:57:44.818Z,57.83
2018-02-09T20:00:12.401Z,45.90
2018-02-09T20:02:40.200Z,78.57
2018-02-09T20:05:07.774Z,54.20
2018-02-09T20:07:35.637Z,90.27
2018-02-09T20:10:03.222Z,35.03
2018-02-09T20:12:30.959Z,33.27
2018-02-09T20:14:58.516Z,29.93
2018-02-09T20:17:26.154Z,30.53
2018-02-09T20:19:53.821Z,31.87
2018-02-09T20:22:21.640Z,30.23
2018-02-09T20:24:49.363Z,32.73
2018-02-09T20:27:16.972Z,32.47
2018-02-09T20:29:44.591Z,209.83
2018-02-09T20:32:12.281Z,139.03
2018-02-09T20:34:40.136Z,59.23
2018-02-09T20:37:07.711Z,88.57
2018-02-09T20:39:35.472Z,51.03
2018-02-09T20:42:03.042Z,37.57
2018-02-09T20:44:30.612Z,28.63
2018-02-09T20:46:58.425Z,31.70
2018-02-09T20:49:26.143Z,39.67
2018-02-09T20:51:53.963Z,35.57
2018-02-09T20:54:21.527Z,30.63
2018-02-09T20:56:49.085Z,87.93
2018-02-09T20:59:16.658Z,32.20
2018-02-09T21:01:44.313Z,35.97
2018-02-09T21:04:12.052Z,33.07
2018-02-09T21:06:39.610Z,35.77
2018-02-09T21:09:07.490Z,36.63
2018-02-09T21:11:35.097Z,39.43
2018-02-09T21:14:02.665Z,38.73
2018-02-09T21:16:30.232Z,37.83
2018-02-09T21:18:57.939Z,49.07
2018-02-09T21:21:25.526Z,67.17
2018-02-09T21:23:53.085Z,48.53
2018-02-09T21:26:20.887Z,41.20
2018-02-09T21:28:48.603Z,41.63
2018-02-09T21:31:16.158Z,38.23
2018-02-09T21:33:43.725Z,44.17
2018-02-09T21:36:11.274Z,43.20
2018-02-09T21:38:39.110Z,40.83
2018-02-09T21:41:06.826Z,42.33
2018-02-09T21:43:34.543Z,37.33
2018-02-09T21:46:02.273Z,37.93
2018-02-09T21:48:30.121Z,37.83
2018-02-09T21:50:57.738Z,36.07
2018-02-09T21:53:25.517Z,37.80
2018-02-09T21:55:53.091Z,37.27
2018-02-09T21:58:20.824Z,35.27
2018-02-09T22:00:48.425Z,32.63
2018-02-09T22:03:16.290Z,31.87
2018-02-09T22:05:43.921Z,33.27
2018-02-09T22:08:11.478Z,38.20
2018-02-09T22:10:39.204Z,32.83
2018-02-09T22:13:06.921Z,29.00
2018-02-09T22:15:34.781Z,21.33
2018-02-09T22:18:02.333Z,19.80
2018-02-09T22:20:30.008Z,18.93
2018-02-09T22:22:57.600Z,20.40
2018-02-09T22:25:25.245Z,23.53
2018-02-09T22:27:52.961Z,19.50
2018-02-09T22:30:20.604Z,18.23
2018-02-09T22:32:48.318Z,19.27
2018-02-09T22:35:15.897Z,18.57
2018-02-09T22:37:43.454Z,19.30
2018-02-09T22:40:11.070Z,62.10
2018-02-09T22:42:38.881Z,29.50
2018-02-09T22:45:06.595Z,20.80
2018-02-09T22:47:34.162Z,21.97
2018-02-09T22:50:01.913Z,24.07
2018-02-09T22:52:29.630Z,23.03
2018-02-09T22:54:57.186Z,24.97
2018-02-09T22:57:24.810Z,22.70
2018-02-09T22:59:52.403Z,21.97
2018-02-09T23:02:19.961Z,20.30
2018-02-09T23:04:47.527Z,19.63
2018-02-09T23:07:15.260Z,21.97
2018-02-09T23:09:43.078Z,22.83
2018-02-09T23:12:10.629Z,22.47
2018-02-09T23:14:38.377Z,24.33
2018-02-09T23:17:05.941Z,24.77
2018-02-09T23:19:33.505Z,23.20
2018-02-09T23:22:01.266Z,22.87
2018-02-09T23:24:28.817Z,24.77
2018-02-09T23:26:56.432Z,29.50
2018-02-09T23:29:24.221Z,31.60
2018-02-09T23:31:52.040Z,29.37
2018-02-09T23:34:19.615Z,29.40
2018-02-09T23:36:47.346Z,28.00
2018-02-09T23:39:14.905Z,28.23
2018-02-09T23:41:42.466Z,27.13
2018-02-09T23:44:10.328Z,25.80
2018-02-09T23:46:38.148Z,25.03
2018-02-09T23:49:05.697Z,25.83
2018-02-09T23:51:33.257Z,26.23
2018-02-09T23:54:01.101Z,26.90
2018-02-09T23:56:28.670Z,21.67
2018-02-09T23:58:56.224Z,23.13
